sensor_id;sensor_type;location;lat;lon;timestamp;P1;durP1;ratioP1;P2;durP2;ratioP2
67514;SDS011;60646;55.802;37.032;2023-12-20T00:01:19;0.60;;;0.47;;
67514;SDS011;60646;55.802;37.032;2023-12-20T00:03:46;0.40;;;0.40;;
67514;SDS011;60646;55.802;37.032;2023-12-20T00:06:12;2.53;;;0.40;;
67514;SDS011;60646;55.802;37.032;2023-12-20T00:08:38;1.33;;;0.40;;
67514;SDS011;60646;55.802;37.032;2023-12-20T00:11:03;0.30;;;0.30;;
67514;SDS011;60646;55.802;37.032;2023-12-20T00:13:29;1.45;;;0.40;;
67514;SDS011;60646;55.802;37.032;2023-12-20T00:15:55;0.52;;;0.45;;
67514;SDS011;60646;55.802;37.032;2023-12-20T00:18:21;0.38;;;0.38;;
67514;SDS011;60646;55.802;37.032;2023-12-20T00:20:47;0.60;;;0.50;;
67514;SDS011;60646;55.802;37.032;2023-12-20T00:23:13;1.25;;;0.50;;
67514;SDS011;60646;55.802;37.032;2023-12-20T00:25:38;0.50;;;0.50;;
67514;SDS011;60646;55.802;37.032;2023-12-20T00:28:04;0.40;;;0.40;;
67514;SDS011;60646;55.802;37.032;2023-12-20T00:30:30;0.95;;;0.45;;
67514;SDS011;60646;55.802;37.032;2023-12-20T00:32:56;1.52;;;0.50;;
67514;SDS011;60646;55.802;37.032;2023-12-20T00:35:22;1.00;;;0.65;;
67514;SDS011;60646;55.802;37.032;2023-12-20T00:37:48;0.52;;;0.50;;
67514;SDS011;60646;55.802;37.032;2023-12-20T00:40:13;1.38;;;0.60;;
67514;SDS011;60646;55.802;37.032;2023-12-20T00:42:39;0.73;;;0.73;;
67514;SDS011;60646;55.802;37.032;2023-12-20T00:45:05;0.80;;;0.70;;
67514;SDS011;60646;55.802;37.032;2023-12-20T00:47:31;3.25;;;0.90;;
67514;SDS011;60646;55.802;37.032;2023-12-20T00:49:57;1.30;;;0.70;;
67514;SDS011;60646;55.802;37.032;2023-12-20T00:52:24;1.30;;;0.57;;
67514;SDS011;60646;55.802;37.032;2023-12-20T00:54:50;0.68;;;0.68;;
67514;SDS011;60646;55.802;37.032;2023-12-20T00:57:16;0.60;;;0.60;;
67514;SDS011;60646;55.802;37.032;2023-12-20T00:59:42;1.00;;;0.52;;
67514;SDS011;60646;55.802;37.032;2023-12-20T01:02:08;0.90;;;0.65;;
67514;SDS011;60646;55.802;37.032;2023-12-20T01:04:35;0.57;;;0.50;;
67514;SDS011;60646;55.802;37.032;2023-12-20T01:07:01;0.50;;;0.50;;
67514;SDS011;60646;55.802;37.032;2023-12-20T01:09:27;0.82;;;0.60;;
67514;SDS011;60646;55.802;37.032;2023-12-20T01:12:12;0.80;;;0.60;;
67514;SDS011;60646;55.802;37.032;2023-12-20T01:14:38;0.80;;;0.65;;
67514;SDS011;60646;55.802;37.032;2023-12-20T01:17:05;0.50;;;0.50;;
67514;SDS011;60646;55.802;37.032;2023-12-20T01:19:31;1.33;;;0.80;;
67514;SDS011;60646;55.802;37.032;2023-12-20T01:21:57;0.68;;;0.60;;
67514;SDS011;60646;55.802;37.032;2023-12-20T01:24:41;0.75;;;0.60;;
67514;SDS011;60646;55.802;37.032;2023-12-20T01:27:07;0.50;;;0.50;;
67514;SDS011;60646;55.802;37.032;2023-12-20T01:29:33;1.17;;;0.70;;
67514;SDS011;60646;55.802;37.032;2023-12-20T01:31:59;1.45;;;0.60;;
67514;SDS011;60646;55.802;37.032;2023-12-20T01:34:25;0.60;;;0.60;;
67514;SDS011;60646;55.802;37.032;2023-12-20T01:36:51;1.02;;;0.65;;
67514;SDS011;60646;55.802;37.032;2023-12-20T01:39:17;0.82;;;0.52;;
67514;SDS011;60646;55.802;37.032;2023-12-20T01:41:43;0.88;;;0.60;;
67514;SDS011;60646;55.802;37.032;2023-12-20T01:44:09;0.80;;;0.60;;
67514;SDS011;60646;55.802;37.032;2023-12-20T01:46:35;0.77;;;0.50;;
67514;SDS011;60646;55.802;37.032;2023-12-20T01:49:01;1.05;;;0.52;;
67514;SDS011;60646;55.802;37.032;2023-12-20T01:51:27;0.60;;;0.55;;
67514;SDS011;60646;55.802;37.032;2023-12-20T01:53:55;0.80;;;0.50;;
67514;SDS011;60646;55.802;37.032;2023-12-20T01:56:21;0.75;;;0.65;;
67514;SDS011;60646;55.802;37.032;2023-12-20T01:58:47;0.98;;;0.55;;
67514;SDS011;60646;55.802;37.032;2023-12-20T02:01:14;1.67;;;0.40;;
67514;SDS011;60646;55.802;37.032;2023-12-20T02:03:40;0.50;;;0.50;;
67514;SDS011;60646;55.802;37.032;2023-12-20T02:06:07;0.40;;;0.40;;
67514;SDS011;60646;55.802;37.032;2023-12-20T02:08:34;1.45;;;0.47;;
67514;SDS011;60646;55.802;37.032;2023-12-20T02:10:59;0.70;;;0.52;;
67514;SDS011;60646;55.802;37.032;2023-12-20T02:13:26;0.35;;;0.35;;
67514;SDS011;60646;55.802;37.032;2023-12-20T02:15:52;0.60;;;0.50;;
67514;SDS011;60646;55.802;37.032;2023-12-20T02:18:19;0.57;;;0.50;;
67514;SDS011;60646;55.802;37.032;2023-12-20T02:20:44;0.30;;;0.30;;
67514;SDS011;60646;55.802;37.032;2023-12-20T02:23:10;0.85;;;0.40;;
67514;SDS011;60646;55.802;37.032;2023-12-20T02:25:36;0.60;;;0.60;;
67514;SDS011;60646;55.802;37.032;2023-12-20T02:28:03;0.30;;;0.30;;
67514;SDS011;60646;55.802;37.032;2023-12-20T02:30:29;0.50;;;0.40;;
67514;SDS011;60646;55.802;37.032;2023-12-20T02:32:55;0.40;;;0.40;;
67514;SDS011;60646;55.802;37.032;2023-12-20T02:35:21;0.80;;;0.47;;
67514;SDS011;60646;55.802;37.032;2023-12-20T02:37:47;0.55;;;0.40;;
67514;SDS011;60646;55.802;37.032;2023-12-20T02:40:13;0.52;;;0.50;;
67514;SDS011;60646;55.802;37.032;2023-12-20T02:42:39;0.80;;;0.77;;
67514;SDS011;60646;55.802;37.032;2023-12-20T02:45:05;0.50;;;0.47;;
67514;SDS011;60646;55.802;37.032;2023-12-20T02:47:31;0.90;;;0.60;;
67514;SDS011;60646;55.802;37.032;2023-12-20T02:49:57;0.88;;;0.50;;
67514;SDS011;60646;55.802;37.032;2023-12-20T02:52:23;1.17;;;0.73;;
67514;SDS011;60646;55.802;37.032;2023-12-20T02:54:50;1.17;;;0.60;;
67514;SDS011;60646;55.802;37.032;2023-12-20T02:57:16;1.63;;;0.70;;
67514;SDS011;60646;55.802;37.032;2023-12-20T02:59:42;1.20;;;0.70;;
67514;SDS011;60646;55.802;37.032;2023-12-20T03:02:08;1.17;;;0.60;;
67514;SDS011;60646;55.802;37.032;2023-12-20T03:04:34;0.93;;;0.55;;
67514;SDS011;60646;55.802;37.032;2023-12-20T03:07:00;1.38;;;1.27;;
67514;SDS011;60646;55.802;37.032;2023-12-20T03:09:26;0.50;;;0.40;;
67514;SDS011;60646;55.802;37.032;2023-12-20T03:11:52;0.60;;;0.50;;
67514;SDS011;60646;55.802;37.032;2023-12-20T03:14:18;1.00;;;0.90;;
67514;SDS011;60646;55.802;37.032;2023-12-20T03:16:49;1.42;;;0.60;;
67514;SDS011;60646;55.802;37.032;2023-12-20T03:19:17;0.80;;;0.60;;
67514;SDS011;60646;55.802;37.032;2023-12-20T03:21:44;1.08;;;0.57;;
67514;SDS011;60646;55.802;37.032;2023-12-20T03:24:10;0.85;;;0.60;;
67514;SDS011;60646;55.802;37.032;2023-12-20T03:26:36;0.68;;;0.60;;
67514;SDS011;60646;55.802;37.032;2023-12-20T03:29:02;0.55;;;0.55;;
67514;SDS011;60646;55.802;37.032;2023-12-20T03:31:28;1.80;;;0.70;;
67514;SDS011;60646;55.802;37.032;2023-12-20T03:33:53;1.95;;;0.85;;
67514;SDS011;60646;55.802;37.032;2023-12-20T03:36:19;1.17;;;1.00;;
67514;SDS011;60646;55.802;37.032;2023-12-20T03:38:46;0.90;;;0.80;;
67514;SDS011;60646;55.802;37.032;2023-12-20T03:41:13;1.02;;;0.75;;
67514;SDS011;60646;55.802;37.032;2023-12-20T03:43:39;0.68;;;0.60;;
67514;SDS011;60646;55.802;37.032;2023-12-20T03:46:05;1.08;;;0.90;;
67514;SDS011;60646;55.802;37.032;2023-12-20T03:48:34;1.13;;;0.90;;
67514;SDS011;60646;55.802;37.032;2023-12-20T03:50:59;2.58;;;0.80;;
67514;SDS011;60646;55.802;37.032;2023-12-20T03:53:25;1.92;;;0.85;;
67514;SDS011;60646;55.802;37.032;2023-12-20T03:55:51;3.20;;;1.00;;
67514;SDS011;60646;55.802;37.032;2023-12-20T03:58:17;1.45;;;0.80;;
67514;SDS011;60646;55.802;37.032;2023-12-20T04:00:43;1.08;;;0.98;;
67514;SDS011;60646;55.802;37.032;2023-12-20T04:03:08;1.95;;;0.90;;
67514;SDS011;60646;55.802;37.032;2023-12-20T04:05:34;0.60;;;0.60;;
67514;SDS011;60646;55.802;37.032;2023-12-20T04:08:01;0.93;;;0.82;;
67514;SDS011;60646;55.802;37.032;2023-12-20T04:10:27;0.70;;;0.50;;
67514;SDS011;60646;55.802;37.032;2023-12-20T04:12:53;0.90;;;0.60;;
67514;SDS011;60646;55.802;37.032;2023-12-20T04:15:20;0.65;;;0.50;;
67514;SDS011;60646;55.802;37.032;2023-12-20T04:17:46;2.25;;;0.70;;
67514;SDS011;60646;55.802;37.032;2023-12-20T04:20:12;0.77;;;0.65;;
67514;SDS011;60646;55.802;37.032;2023-12-20T04:22:38;1.35;;;0.70;;
67514;SDS011;60646;55.802;37.032;2023-12-20T04:25:04;0.80;;;0.70;;
67514;SDS011;60646;55.802;37.032;2023-12-20T04:27:31;0.77;;;0.77;;
67514;SDS011;60646;55.802;37.032;2023-12-20T04:29:57;1.45;;;0.70;;
67514;SDS011;60646;55.802;37.032;2023-12-20T04:32:23;1.23;;;0.82;;
67514;SDS011;60646;55.802;37.032;2023-12-20T04:34:49;1.83;;;0.90;;
67514;SDS011;60646;55.802;37.032;2023-12-20T04:37:15;0.88;;;0.60;;
67514;SDS011;60646;55.802;37.032;2023-12-20T04:39:40;0.60;;;0.47;;
67514;SDS011;60646;55.802;37.032;2023-12-20T04:42:07;0.73;;;0.70;;
67514;SDS011;60646;55.802;37.032;2023-12-20T04:44:33;0.85;;;0.50;;
67514;SDS011;60646;55.802;37.032;2023-12-20T04:46:59;0.70;;;0.55;;
67514;SDS011;60646;55.802;37.032;2023-12-20T04:49:25;2.17;;;1.00;;
67514;SDS011;60646;55.802;37.032;2023-12-20T04:51:51;0.80;;;0.70;;
67514;SDS011;60646;55.802;37.032;2023-12-20T04:54:18;3.05;;;1.20;;
67514;SDS011;60646;55.802;37.032;2023-12-20T04:56:43;1.30;;;0.88;;
67514;SDS011;60646;55.802;37.032;2023-12-20T04:59:09;1.30;;;0.95;;
67514;SDS011;60646;55.802;37.032;2023-12-20T05:01:35;0.93;;;0.80;;
67514;SDS011;60646;55.802;37.032;2023-12-20T05:04:01;1.95;;;0.90;;
67514;SDS011;60646;55.802;37.032;2023-12-20T05:06:27;1.25;;;0.82;;
67514;SDS011;60646;55.802;37.032;2023-12-20T05:08:53;2.67;;;0.80;;
67514;SDS011;60646;55.802;37.032;2023-12-20T05:11:18;1.38;;;0.90;;
67514;SDS011;60646;55.802;37.032;2023-12-20T05:13:44;1.33;;;0.90;;
67514;SDS011;60646;55.802;37.032;2023-12-20T05:16:10;3.38;;;0.90;;
67514;SDS011;60646;55.802;37.032;2023-12-20T05:18:36;1.20;;;0.80;;
67514;SDS011;60646;55.802;37.032;2023-12-20T05:21:02;1.40;;;0.90;;
67514;SDS011;60646;55.802;37.032;2023-12-20T05:23:28;2.40;;;0.88;;
67514;SDS011;60646;55.802;37.032;2023-12-20T05:25:54;1.27;;;0.88;;
67514;SDS011;60646;55.802;37.032;2023-12-20T05:28:21;2.20;;;0.77;;
67514;SDS011;60646;55.802;37.032;2023-12-20T05:30:46;1.35;;;0.95;;
67514;SDS011;60646;55.802;37.032;2023-12-20T05:33:12;2.60;;;1.10;;
67514;SDS011;60646;55.802;37.032;2023-12-20T05:35:38;1.20;;;0.70;;
67514;SDS011;60646;55.802;37.032;2023-12-20T05:38:04;1.55;;;0.90;;
67514;SDS011;60646;55.802;37.032;2023-12-20T05:40:30;1.48;;;0.90;;
67514;SDS011;60646;55.802;37.032;2023-12-20T05:42:56;1.27;;;0.80;;
67514;SDS011;60646;55.802;37.032;2023-12-20T05:45:22;3.17;;;0.90;;
67514;SDS011;60646;55.802;37.032;2023-12-20T05:47:48;1.70;;;0.98;;
67514;SDS011;60646;55.802;37.032;2023-12-20T05:50:13;2.08;;;1.30;;
67514;SDS011;60646;55.802;37.032;2023-12-20T05:52:40;2.15;;;1.10;;
67514;SDS011;60646;55.802;37.032;2023-12-20T05:55:06;2.75;;;1.10;;
67514;SDS011;60646;55.802;37.032;2023-12-20T05:57:34;1.08;;;0.90;;
67514;SDS011;60646;55.802;37.032;2023-12-20T06:00:00;1.77;;;1.17;;
67514;SDS011;60646;55.802;37.032;2023-12-20T06:02:26;1.35;;;1.05;;
67514;SDS011;60646;55.802;37.032;2023-12-20T06:04:52;1.92;;;1.02;;
67514;SDS011;60646;55.802;37.032;2023-12-20T06:07:24;2.97;;;1.00;;
67514;SDS011;60646;55.802;37.032;2023-12-20T06:09:50;2.55;;;1.30;;
67514;SDS011;60646;55.802;37.032;2023-12-20T06:12:16;2.95;;;1.52;;
67514;SDS011;60646;55.802;37.032;2023-12-20T06:14:42;2.75;;;1.27;;
67514;SDS011;60646;55.802;37.032;2023-12-20T06:17:08;3.45;;;1.10;;
67514;SDS011;60646;55.802;37.032;2023-12-20T06:19:34;3.17;;;1.25;;
67514;SDS011;60646;55.802;37.032;2023-12-20T06:22:00;1.48;;;0.98;;
67514;SDS011;60646;55.802;37.032;2023-12-20T06:24:26;2.58;;;1.00;;
67514;SDS011;60646;55.802;37.032;2023-12-20T06:26:53;2.05;;;1.05;;
67514;SDS011;60646;55.802;37.032;2023-12-20T06:29:21;1.95;;;1.30;;
67514;SDS011;60646;55.802;37.032;2023-12-20T06:31:46;3.38;;;1.00;;
67514;SDS011;60646;55.802;37.032;2023-12-20T06:34:12;1.77;;;0.90;;
67514;SDS011;60646;55.802;37.032;2023-12-20T06:36:38;3.65;;;1.50;;
67514;SDS011;60646;55.802;37.032;2023-12-20T06:39:04;2.30;;;1.20;;
67514;SDS011;60646;55.802;37.032;2023-12-20T06:41:30;1.88;;;1.40;;
67514;SDS011;60646;55.802;37.032;2023-12-20T06:43:56;2.13;;;1.20;;
67514;SDS011;60646;55.802;37.032;2023-12-20T06:46:22;2.92;;;1.55;;
67514;SDS011;60646;55.802;37.032;2023-12-20T06:48:48;3.33;;;1.65;;
67514;SDS011;60646;55.802;37.032;2023-12-20T06:51:14;1.95;;;1.40;;
67514;SDS011;60646;55.802;37.032;2023-12-20T06:53:41;2.10;;;1.17;;
67514;SDS011;60646;55.802;37.032;2023-12-20T06:56:07;2.53;;;1.30;;
67514;SDS011;60646;55.802;37.032;2023-12-20T06:58:34;3.47;;;1.55;;
67514;SDS011;60646;55.802;37.032;2023-12-20T07:01:02;2.15;;;1.52;;
67514;SDS011;60646;55.802;37.032;2023-12-20T07:03:28;2.40;;;1.30;;
67514;SDS011;60646;55.802;37.032;2023-12-20T07:05:53;3.30;;;1.20;;
67514;SDS011;60646;55.802;37.032;2023-12-20T07:08:19;1.83;;;1.20;;
67514;SDS011;60646;55.802;37.032;2023-12-20T07:10:45;3.08;;;1.20;;
67514;SDS011;60646;55.802;37.032;2023-12-20T07:13:11;2.80;;;1.40;;
67514;SDS011;60646;55.802;37.032;2023-12-20T07:15:37;1.48;;;1.00;;
67514;SDS011;60646;55.802;37.032;2023-12-20T07:18:03;2.45;;;1.40;;
67514;SDS011;60646;55.802;37.032;2023-12-20T07:20:30;3.28;;;1.20;;
67514;SDS011;60646;55.802;37.032;2023-12-20T07:22:56;2.58;;;1.13;;
67514;SDS011;60646;55.802;37.032;2023-12-20T07:25:22;3.15;;;1.00;;
67514;SDS011;60646;55.802;37.032;2023-12-20T07:27:48;2.17;;;1.10;;
67514;SDS011;60646;55.802;37.032;2023-12-20T07:30:14;2.38;;;1.27;;
67514;SDS011;60646;55.802;37.032;2023-12-20T07:32:40;2.03;;;0.85;;
67514;SDS011;60646;55.802;37.032;2023-12-20T07:35:06;1.65;;;1.20;;
67514;SDS011;60646;55.802;37.032;2023-12-20T07:37:32;1.70;;;1.10;;
67514;SDS011;60646;55.802;37.032;2023-12-20T07:39:58;3.78;;;1.33;;
67514;SDS011;60646;55.802;37.032;2023-12-20T07:42:24;1.83;;;1.10;;
67514;SDS011;60646;55.802;37.032;2023-12-20T07:44:49;2.05;;;1.13;;
67514;SDS011;60646;55.802;37.032;2023-12-20T07:47:15;2.35;;;1.08;;
67514;SDS011;60646;55.802;37.032;2023-12-20T07:49:49;2.60;;;2.10;;
67514;SDS011;60646;55.802;37.032;2023-12-20T07:52:17;1.88;;;1.10;;
67514;SDS011;60646;55.802;37.032;2023-12-20T07:54:44;2.95;;;1.58;;
67514;SDS011;60646;55.802;37.032;2023-12-20T07:57:11;3.58;;;1.27;;
67514;SDS011;60646;55.802;37.032;2023-12-20T07:59:37;1.65;;;1.30;;
67514;SDS011;60646;55.802;37.032;2023-12-20T08:02:03;3.80;;;1.65;;
67514;SDS011;60646;55.802;37.032;2023-12-20T08:04:29;2.40;;;1.45;;
67514;SDS011;60646;55.802;37.032;2023-12-20T08:06:55;1.67;;;0.80;;
67514;SDS011;60646;55.802;37.032;2023-12-20T08:09:21;2.67;;;1.33;;
67514;SDS011;60646;55.802;37.032;2023-12-20T08:11:47;3.60;;;1.20;;
67514;SDS011;60646;55.802;37.032;2023-12-20T08:14:14;1.38;;;0.80;;
67514;SDS011;60646;55.802;37.032;2023-12-20T08:16:40;4.35;;;1.15;;
67514;SDS011;60646;55.802;37.032;2023-12-20T08:19:06;1.75;;;0.90;;
67514;SDS011;60646;55.802;37.032;2023-12-20T08:21:33;1.42;;;0.80;;
67514;SDS011;60646;55.802;37.032;2023-12-20T08:23:59;3.08;;;0.88;;
67514;SDS011;60646;55.802;37.032;2023-12-20T08:26:26;1.48;;;0.98;;
67514;SDS011;60646;55.802;37.032;2023-12-20T08:28:52;1.40;;;0.88;;
67514;SDS011;60646;55.802;37.032;2023-12-20T08:31:18;1.08;;;0.80;;
67514;SDS011;60646;55.802;37.032;2023-12-20T08:33:45;1.60;;;0.90;;
67514;SDS011;60646;55.802;37.032;2023-12-20T08:36:12;3.25;;;1.20;;
67514;SDS011;60646;55.802;37.032;2023-12-20T08:38:38;2.03;;;0.80;;
67514;SDS011;60646;55.802;37.032;2023-12-20T08:41:04;1.15;;;1.00;;
67514;SDS011;60646;55.802;37.032;2023-12-20T08:43:31;0.77;;;0.73;;
67514;SDS011;60646;55.802;37.032;2023-12-20T08:45:57;1.65;;;1.00;;
67514;SDS011;60646;55.802;37.032;2023-12-20T08:48:23;1.65;;;0.90;;
67514;SDS011;60646;55.802;37.032;2023-12-20T08:50:49;1.45;;;1.10;;
67514;SDS011;60646;55.802;37.032;2023-12-20T08:53:17;2.13;;;1.10;;
67514;SDS011;60646;55.802;37.032;2023-12-20T08:55:44;1.50;;;1.00;;
67514;SDS011;60646;55.802;37.032;2023-12-20T08:58:11;2.22;;;1.00;;
67514;SDS011;60646;55.802;37.032;2023-12-20T09:00:37;3.70;;;1.00;;
67514;SDS011;60646;55.802;37.032;2023-12-20T09:03:04;1.95;;;1.00;;
67514;SDS011;60646;55.802;37.032;2023-12-20T09:05:30;3.03;;;1.02;;
67514;SDS011;60646;55.802;37.032;2023-12-20T09:07:57;1.15;;;0.80;;
67514;SDS011;60646;55.802;37.032;2023-12-20T09:10:23;1.67;;;0.98;;
67514;SDS011;60646;55.802;37.032;2023-12-20T09:12:49;0.82;;;0.75;;
67514;SDS011;60646;55.802;37.032;2023-12-20T09:15:16;1.48;;;0.90;;
67514;SDS011;60646;55.802;37.032;2023-12-20T09:17:41;2.60;;;0.80;;
67514;SDS011;60646;55.802;37.032;2023-12-20T09:20:09;1.35;;;0.80;;
67514;SDS011;60646;55.802;37.032;2023-12-20T09:22:36;0.75;;;0.73;;
67514;SDS011;60646;55.802;37.032;2023-12-20T09:25:04;1.45;;;0.82;;
67514;SDS011;60646;55.802;37.032;2023-12-20T09:27:30;2.13;;;1.00;;
67514;SDS011;60646;55.802;37.032;2023-12-20T09:29:57;1.95;;;1.08;;
67514;SDS011;60646;55.802;37.032;2023-12-20T09:32:22;0.85;;;0.80;;
67514;SDS011;60646;55.802;37.032;2023-12-20T09:34:53;1.92;;;1.02;;
67514;SDS011;60646;55.802;37.032;2023-12-20T09:37:19;1.90;;;1.00;;
67514;SDS011;60646;55.802;37.032;2023-12-20T09:39:46;0.98;;;0.70;;
67514;SDS011;60646;55.802;37.032;2023-12-20T09:42:11;1.05;;;0.80;;
67514;SDS011;60646;55.802;37.032;2023-12-20T09:44:42;2.45;;;1.00;;
67514;SDS011;60646;55.802;37.032;2023-12-20T09:47:09;1.30;;;0.70;;
67514;SDS011;60646;55.802;37.032;2023-12-20T09:49:35;1.98;;;0.88;;
67514;SDS011;60646;55.802;37.032;2023-12-20T09:52:03;1.17;;;0.80;;
67514;SDS011;60646;55.802;37.032;2023-12-20T09:54:31;1.23;;;0.80;;
67514;SDS011;60646;55.802;37.032;2023-12-20T09:56:57;0.82;;;0.80;;
67514;SDS011;60646;55.802;37.032;2023-12-20T09:59:24;0.95;;;0.80;;
67514;SDS011;60646;55.802;37.032;2023-12-20T10:01:50;0.88;;;0.70;;
67514;SDS011;60646;55.802;37.032;2023-12-20T10:04:22;2.42;;;0.77;;
67514;SDS011;60646;55.802;37.032;2023-12-20T10:06:48;0.98;;;0.80;;
67514;SDS011;60646;55.802;37.032;2023-12-20T10:09:14;0.60;;;0.60;;
67514;SDS011;60646;55.802;37.032;2023-12-20T10:11:40;1.20;;;0.93;;
67514;SDS011;60646;55.802;37.032;2023-12-20T10:14:07;1.35;;;0.90;;
67514;SDS011;60646;55.802;37.032;2023-12-20T10:16:33;1.00;;;0.80;;
67514;SDS011;60646;55.802;37.032;2023-12-20T10:19:00;1.23;;;0.98;;
67514;SDS011;60646;55.802;37.032;2023-12-20T10:21:29;1.13;;;0.73;;
67514;SDS011;60646;55.802;37.032;2023-12-20T10:23:56;2.00;;;1.00;;
67514;SDS011;60646;55.802;37.032;2023-12-20T10:26:23;0.88;;;0.80;;
67514;SDS011;60646;55.802;37.032;2023-12-20T10:28:50;3.40;;;0.70;;
67514;SDS011;60646;55.802;37.032;2023-12-20T10:31:31;1.20;;;0.93;;
67514;SDS011;60646;55.802;37.032;2023-12-20T10:34:02;0.90;;;0.70;;
67514;SDS011;60646;55.802;37.032;2023-12-20T10:36:32;1.10;;;0.80;;
67514;SDS011;60646;55.802;37.032;2023-12-20T10:38:58;1.13;;;0.82;;
67514;SDS011;60646;55.802;37.032;2023-12-20T10:41:26;1.13;;;0.80;;
67514;SDS011;60646;55.802;37.032;2023-12-20T10:43:58;1.63;;;0.80;;
67514;SDS011;60646;55.802;37.032;2023-12-20T10:46:28;1.38;;;0.90;;
67514;SDS011;60646;55.802;37.032;2023-12-20T10:48:56;1.40;;;0.90;;
67514;SDS011;60646;55.802;37.032;2023-12-20T10:51:23;1.27;;;0.80;;
67514;SDS011;60646;55.802;37.032;2023-12-20T10:53:52;1.25;;;0.82;;
67514;SDS011;60646;55.802;37.032;2023-12-20T10:56:19;1.42;;;0.85;;
67514;SDS011;60646;55.802;37.032;2023-12-20T10:58:47;2.45;;;0.80;;
67514;SDS011;60646;55.802;37.032;2023-12-20T11:01:15;0.60;;;0.60;;
67514;SDS011;60646;55.802;37.032;2023-12-20T11:03:53;0.95;;;0.70;;
67514;SDS011;60646;55.802;37.032;2023-12-20T11:06:27;0.88;;;0.70;;
67514;SDS011;60646;55.802;37.032;2023-12-20T11:09:13;1.42;;;0.65;;
67514;SDS011;60646;55.802;37.032;2023-12-20T11:14:54;1.20;;;0.60;;
67514;SDS011;60646;55.802;37.032;2023-12-20T11:17:31;1.20;;;0.80;;
67514;SDS011;60646;55.802;37.032;2023-12-20T11:22:25;2.35;;;0.60;;
67514;SDS011;60646;55.802;37.032;2023-12-20T11:25:04;0.73;;;0.60;;
67514;SDS011;60646;55.802;37.032;2023-12-20T11:27:44;1.35;;;0.70;;
67514;SDS011;60646;55.802;37.032;2023-12-20T11:30:50;2.25;;;0.80;;
67514;SDS011;60646;55.802;37.032;2023-12-20T11:33:21;0.70;;;0.63;;
67514;SDS011;60646;55.802;37.032;2023-12-20T11:36:13;0.80;;;0.63;;
67514;SDS011;60646;55.802;37.032;2023-12-20T11:38:56;0.63;;;0.52;;
67514;SDS011;60646;55.802;37.032;2023-12-20T11:41:23;2.03;;;0.80;;
67514;SDS011;60646;55.802;37.032;2023-12-20T11:43:55;1.75;;;0.85;;
67514;SDS011;60646;55.802;37.032;2023-12-20T11:46:26;2.58;;;0.90;;
67514;SDS011;60646;55.802;37.032;2023-12-20T11:48:57;1.20;;;0.70;;
67514;SDS011;60646;55.802;37.032;2023-12-20T11:51:41;2.00;;;1.00;;
67514;SDS011;60646;55.802;37.032;2023-12-20T11:54:09;1.90;;;0.80;;
67514;SDS011;60646;55.802;37.032;2023-12-20T11:56:36;1.20;;;0.70;;
67514;SDS011;60646;55.802;37.032;2023-12-20T11:59:03;0.65;;;0.60;;
67514;SDS011;60646;55.802;37.032;2023-12-20T12:01:50;2.25;;;0.80;;
67514;SDS011;60646;55.802;37.032;2023-12-20T12:04:28;1.77;;;0.80;;
67514;SDS011;60646;55.802;37.032;2023-12-20T12:06:58;1.38;;;0.60;;
67514;SDS011;60646;55.802;37.032;2023-12-20T12:09:23;1.08;;;0.60;;
67514;SDS011;60646;55.802;37.032;2023-12-20T12:11:49;0.60;;;0.50;;
67514;SDS011;60646;55.802;37.032;2023-12-20T12:14:15;0.60;;;0.60;;
67514;SDS011;60646;55.802;37.032;2023-12-20T12:16:41;1.27;;;0.70;;
67514;SDS011;60646;55.802;37.032;2023-12-20T12:19:19;1.20;;;0.65;;
67514;SDS011;60646;55.802;37.032;2023-12-20T12:21:46;1.42;;;0.80;;
67514;SDS011;60646;55.802;37.032;2023-12-20T12:24:12;1.15;;;0.70;;
67514;SDS011;60646;55.802;37.032;2023-12-20T12:26:38;2.58;;;1.00;;
67514;SDS011;60646;55.802;37.032;2023-12-20T12:29:08;0.95;;;0.60;;
67514;SDS011;60646;55.802;37.032;2023-12-20T12:31:35;1.02;;;0.73;;
67514;SDS011;60646;55.802;37.032;2023-12-20T12:34:01;1.17;;;0.57;;
67514;SDS011;60646;55.802;37.032;2023-12-20T12:36:28;1.15;;;0.52;;
67514;SDS011;60646;55.802;37.032;2023-12-20T12:38:56;1.42;;;0.70;;
67514;SDS011;60646;55.802;37.032;2023-12-20T12:41:23;0.80;;;0.52;;
67514;SDS011;60646;55.802;37.032;2023-12-20T12:43:49;0.80;;;0.50;;
67514;SDS011;60646;55.802;37.032;2023-12-20T12:46:14;1.20;;;0.57;;
67514;SDS011;60646;55.802;37.032;2023-12-20T12:48:40;1.33;;;0.60;;
67514;SDS011;60646;55.802;37.032;2023-12-20T12:51:06;0.75;;;0.52;;
67514;SDS011;60646;55.802;37.032;2023-12-20T12:53:37;0.80;;;0.63;;
67514;SDS011;60646;55.802;37.032;2023-12-20T12:56:03;0.63;;;0.60;;
67514;SDS011;60646;55.802;37.032;2023-12-20T12:58:29;0.65;;;0.50;;
67514;SDS011;60646;55.802;37.032;2023-12-20T13:00:55;1.35;;;0.32;;
67514;SDS011;60646;55.802;37.032;2023-12-20T13:03:22;0.90;;;0.52;;
67514;SDS011;60646;55.802;37.032;2023-12-20T13:05:47;0.52;;;0.40;;
67514;SDS011;60646;55.802;37.032;2023-12-20T13:08:14;2.78;;;0.57;;
67514;SDS011;60646;55.802;37.032;2023-12-20T13:10:40;3.10;;;0.60;;
67514;SDS011;60646;55.802;37.032;2023-12-20T13:13:06;0.75;;;0.50;;
67514;SDS011;60646;55.802;37.032;2023-12-20T13:15:32;0.63;;;0.60;;
67514;SDS011;60646;55.802;37.032;2023-12-20T13:17:58;0.60;;;0.60;;
67514;SDS011;60646;55.802;37.032;2023-12-20T13:20:23;0.55;;;0.55;;
67514;SDS011;60646;55.802;37.032;2023-12-20T13:22:49;0.50;;;0.45;;
67514;SDS011;60646;55.802;37.032;2023-12-20T13:25:15;0.75;;;0.50;;
67514;SDS011;60646;55.802;37.032;2023-12-20T13:27:41;1.00;;;0.38;;
67514;SDS011;60646;55.802;37.032;2023-12-20T13:30:07;0.82;;;0.40;;
67514;SDS011;60646;55.802;37.032;2023-12-20T13:32:33;0.55;;;0.50;;
67514;SDS011;60646;55.802;37.032;2023-12-20T13:34:59;0.75;;;0.50;;
67514;SDS011;60646;55.802;37.032;2023-12-20T13:37:24;0.77;;;0.50;;
67514;SDS011;60646;55.802;37.032;2023-12-20T13:39:50;0.93;;;0.60;;
67514;SDS011;60646;55.802;37.032;2023-12-20T13:42:16;0.50;;;0.45;;
67514;SDS011;60646;55.802;37.032;2023-12-20T13:44:42;0.60;;;0.60;;
67514;SDS011;60646;55.802;37.032;2023-12-20T13:47:08;0.75;;;0.57;;
67514;SDS011;60646;55.802;37.032;2023-12-20T13:49:34;2.35;;;0.50;;
67514;SDS011;60646;55.802;37.032;2023-12-20T13:52:03;0.30;;;0.30;;
67514;SDS011;60646;55.802;37.032;2023-12-20T13:54:29;0.43;;;0.43;;
67514;SDS011;60646;55.802;37.032;2023-12-20T13:56:55;0.70;;;0.40;;
67514;SDS011;60646;55.802;37.032;2023-12-20T13:59:23;0.40;;;0.40;;
67514;SDS011;60646;55.802;37.032;2023-12-20T14:01:49;0.73;;;0.50;;
67514;SDS011;60646;55.802;37.032;2023-12-20T14:04:16;1.63;;;0.60;;
67514;SDS011;60646;55.802;37.032;2023-12-20T14:06:42;1.05;;;0.95;;
67514;SDS011;60646;55.802;37.032;2023-12-20T14:09:08;0.60;;;0.50;;
67514;SDS011;60646;55.802;37.032;2023-12-20T14:11:33;1.05;;;0.60;;
67514;SDS011;60646;55.802;37.032;2023-12-20T14:13:59;1.20;;;0.70;;
67514;SDS011;60646;55.802;37.032;2023-12-20T14:16:27;1.90;;;0.80;;
67514;SDS011;60646;55.802;37.032;2023-12-20T14:18:53;0.90;;;0.80;;
67514;SDS011;60646;55.802;37.032;2023-12-20T14:21:26;1.23;;;0.80;;
67514;SDS011;60646;55.802;37.032;2023-12-20T14:23:52;2.08;;;0.85;;
67514;SDS011;60646;55.802;37.032;2023-12-20T14:26:18;1.27;;;0.73;;
67514;SDS011;60646;55.802;37.032;2023-12-20T14:28:44;1.15;;;0.73;;
67514;SDS011;60646;55.802;37.032;2023-12-20T14:31:09;0.80;;;0.60;;
67514;SDS011;60646;55.802;37.032;2023-12-20T14:33:36;1.00;;;0.70;;
67514;SDS011;60646;55.802;37.032;2023-12-20T14:38:58;2.53;;;1.40;;
67514;SDS011;60646;55.802;37.032;2023-12-20T14:41:24;4.70;;;1.45;;